sensor_id;sensor_type;location;lat;lon;timestamp;pressure;altitude;pressure_sealevel;temperature;humidity
53526;BME280;40551;50.478;19.378;2023-05-12T22:03:48;98328.05;;;10.93;49.47
53526;BME280;40551;50.478;19.378;2023-05-12T22:11:19;98332.17;;;10.87;49.30
53526;BME280;40551;50.478;19.378;2023-05-12T22:14:54;98330.44;;;10.79;49.42
53526;BME280;40551;50.478;19.378;2023-05-12T22:17:24;98329.29;;;10.72;49.46
53526;BME280;40551;50.478;19.378;2023-05-12T22:19:56;98330.73;;;10.65;49.50
53526;BME280;40551;50.478;19.378;2023-05-12T22:22:26;98329.69;;;10.62;49.62
53526;BME280;40551;50.478;19.378;2023-05-12T22:24:57;98332.80;;;10.58;49.63
53526;BME280;40551;50.478;19.378;2023-05-12T22:27:29;98329.98;;;10.59;49.66
53526;BME280;40551;50.478;19.378;2023-05-12T22:29:59;98335.08;;;10.60;49.67
53526;BME280;40551;50.478;19.378;2023-05-12T22:32:31;98335.36;;;10.57;49.63
53526;BME280;40551;50.478;19.378;2023-05-12T22:35:03;98333.73;;;10.58;49.69
53526;BME280;40551;50.478;19.378;2023-05-12T22:37:35;98335.05;;;10.58;49.61
53526;BME280;40551;50.478;19.378;2023-05-12T22:40:07;98333.85;;;10.58;49.68
53526;BME280;40551;50.478;19.378;2023-05-12T22:42:39;98338.39;;;10.53;49.72
53526;BME280;40551;50.478;19.378;2023-05-12T22:45:12;98337.08;;;10.53;49.84
53526;BME280;40551;50.478;19.378;2023-05-12T22:47:44;98341.50;;;10.52;50.05
53526;BME280;40551;50.478;19.378;2023-05-12T22:50:15;98334.02;;;10.50;49.91
53526;BME280;40551;50.478;19.378;2023-05-12T22:52:47;98330.52;;;10.48;50.15
53526;BME280;40551;50.478;19.378;2023-05-12T22:55:17;98330.53;;;10.46;50.06
53526;BME280;40551;50.478;19.378;2023-05-12T22:57:49;98328.95;;;10.39;50.32
53526;BME280;40551;50.478;19.378;2023-05-12T23:00:19;98329.04;;;10.36;50.29
53526;BME280;40551;50.478;19.378;2023-05-12T23:02:51;98331.58;;;10.30;50.55
53526;BME280;40551;50.478;19.378;2023-05-12T23:05:23;98333.55;;;10.29;50.77
53526;BME280;40551;50.478;19.378;2023-05-12T23:07:55;98333.52;;;10.28;50.84
53526;BME280;40551;50.478;19.378;2023-05-12T23:13:45;98331.78;;;10.23;50.95
53526;BME280;40551;50.478;19.378;2023-05-12T23:16:16;98338.12;;;10.21;51.18
53526;BME280;40551;50.478;19.378;2023-05-12T23:18:48;98342.11;;;10.19;51.12
53526;BME280;40551;50.478;19.378;2023-05-12T23:21:20;98344.77;;;10.16;51.16
53526;BME280;40551;50.478;19.378;2023-05-12T23:23:51;98349.98;;;10.14;51.23
53526;BME280;40551;50.478;19.378;2023-05-12T23:26:21;98348.63;;;10.12;51.37
53526;BME280;40551;50.478;19.378;2023-05-12T23:28:53;98348.23;;;10.05;51.32
53526;BME280;40551;50.478;19.378;2023-05-12T23:31:25;98346.41;;;10.04;51.61
53526;BME280;40551;50.478;19.378;2023-05-12T23:33:56;98342.55;;;10.03;51.45
53526;BME280;40551;50.478;19.378;2023-05-12T23:36:28;98344.52;;;10.00;51.58
53526;BME280;40551;50.478;19.378;2023-05-12T23:39:01;98344.66;;;9.97;51.75
53526;BME280;40551;50.478;19.378;2023-05-12T23:41:33;98342.80;;;9.95;51.91
53526;BME280;40551;50.478;19.378;2023-05-12T23:44:05;98344.81;;;9.91;52.07
53526;BME280;40551;50.478;19.378;2023-05-12T23:46:37;98341.80;;;9.88;52.03
53526;BME280;40551;50.478;19.378;2023-05-12T23:49:09;98336.48;;;9.85;52.03
53526;BME280;40551;50.478;19.378;2023-05-12T23:51:39;98339.40;;;9.83;52.18
53526;BME280;40551;50.478;19.378;2023-05-12T23:54:11;98336.20;;;9.75;52.55
53526;BME280;40551;50.478;19.378;2023-05-12T23:56:42;98336.02;;;9.72;52.65
53526;BME280;40551;50.478;19.378;2023-05-12T23:59:14;98337.39;;;9.69;52.73
